createdAt,value
2022-09-21T00:02:13.714Z,99.90
2022-09-21T00:04:40.704Z,99.90
2022-09-21T00:07:07.346Z,99.90
2022-09-21T00:09:33.996Z,99.90
2022-09-21T00:12:00.781Z,99.90
2022-09-21T00:14:27.962Z,99.90
2022-09-21T00:16:55.489Z,99.90
2022-09-21T00:19:22.185Z,99.90
2022-09-21T00:21:54.013Z,99.90
2022-09-21T00:24:20.694Z,99.90
2022-09-21T00:26:48.788Z,99.90
2022-09-21T00:29:15.600Z,99.90
2022-09-21T00:31:43.070Z,99.90
2022-09-21T00:34:09.747Z,99.90
2022-09-21T00:36:36.983Z,99.90
2022-09-21T00:39:11.253Z,99.90
2022-09-21T00:41:37.882Z,99.90
2022-09-21T00:44:16.444Z,99.90
2022-09-21T00:46:43.426Z,99.90
2022-09-21T00:49:10.103Z,99.90
2022-09-21T00:51:37.263Z,99.90
2022-09-21T00:54:09.476Z,99.90
2022-09-21T00:56:37.085Z,99.90
2022-09-21T00:59:04.066Z,99.90
2022-09-21T01:01:31.155Z,99.90
2022-09-21T01:03:57.977Z,99.90
2022-09-21T01:06:24.880Z,99.90
2022-09-21T01:08:53.714Z,99.90
2022-09-21T01:11:30.268Z,99.90
2022-09-21T01:14:15.766Z,99.90
2022-09-21T01:17:03.133Z,99.90
2022-09-21T01:19:29.769Z,99.90
2022-09-21T01:22:02.912Z,99.90
2022-09-21T01:24:39.858Z,99.90
2022-09-21T01:27:24.613Z,99.90
2022-09-21T01:30:02.433Z,99.90
2022-09-21T01:32:33.248Z,99.90
2022-09-21T01:35:08.140Z,99.90
2022-09-21T01:37:34.863Z,99.90
2022-09-21T01:40:04.909Z,99.90
2022-09-21T01:42:32.695Z,99.90
2022-09-21T01:45:01.988Z,99.90
2022-09-21T01:47:31.509Z,99.90
2022-09-21T01:50:00.272Z,99.90
2022-09-21T01:52:34.147Z,99.90
2022-09-21T01:55:06.535Z,99.90
2022-09-21T01:57:44.966Z,99.90
2022-09-21T02:00:11.865Z,99.90
2022-09-21T02:02:46.193Z,99.90
2022-09-21T02:05:13.228Z,99.90
2022-09-21T02:07:40.039Z,99.90
2022-09-21T02:10:08.317Z,99.90
2022-09-21T02:12:35.040Z,99.90
2022-09-21T02:15:02.831Z,99.90
2022-09-21T02:17:33.502Z,99.90
2022-09-21T02:20:03.274Z,99.90
2022-09-21T02:22:33.741Z,99.90
2022-09-21T02:25:06.596Z,99.90
2022-09-21T02:27:46.676Z,99.90
2022-09-21T02:30:23.747Z,99.90
2022-09-21T02:32:57.604Z,99.90
2022-09-21T02:35:51.238Z,99.90
2022-09-21T02:38:22.661Z,99.90
2022-09-21T02:41:07.932Z,99.90
2022-09-21T02:43:37.508Z,99.90
2022-09-21T02:46:08.701Z,99.90
2022-09-21T02:48:38.288Z,99.90
2022-09-21T02:51:14.119Z,99.90
2022-09-21T02:53:42.938Z,99.90
2022-09-21T02:56:11.565Z,99.90
2022-09-21T02:58:40.109Z,99.90
2022-09-21T03:01:10.104Z,99.90
2022-09-21T03:03:36.813Z,99.90
2022-09-21T03:06:03.531Z,99.90
2022-09-21T03:08:30.509Z,99.90
2022-09-21T03:10:57.891Z,99.90
2022-09-21T03:13:24.637Z,99.90
2022-09-21T03:15:59.111Z,99.90
2022-09-21T03:18:25.764Z,99.90
2022-09-21T03:20:52.512Z,99.90
2022-09-21T03:23:19.867Z,99.90
2022-09-21T03:25:46.631Z,99.90
2022-09-21T03:28:14.271Z,99.90
2022-09-21T03:30:41.332Z,99.90
2022-09-21T03:33:08.676Z,99.90
2022-09-21T03:35:35.361Z,99.90
2022-09-21T03:38:02.667Z,99.90
2022-09-21T03:40:31.251Z,99.90
2022-09-21T03:42:57.957Z,99.90
2022-09-21T03:45:30.496Z,99.90
2022-09-21T03:47:58.149Z,99.90
2022-09-21T03:50:25.886Z,99.90
2022-09-21T03:52:52.782Z,99.90
2022-09-21T03:55:19.770Z,99.90
2022-09-21T03:57:46.476Z,99.90
2022-09-21T04:00:13.613Z,99.90
2022-09-21T04:02:40.701Z,99.90
2022-09-21T04:05:11.840Z,99.90
2022-09-21T04:07:40.739Z,99.90
2022-09-21T04:10:08.191Z,99.90
2022-09-21T04:12:36.330Z,99.90
2022-09-21T04:15:06.568Z,99.90
2022-09-21T04:17:34.190Z,99.90
2022-09-21T04:20:01.231Z,99.90
2022-09-21T04:22:27.884Z,99.90
2022-09-21T04:24:55.334Z,99.90
2022-09-21T04:27:22.023Z,99.90
2022-09-21T04:29:49.498Z,99.90
2022-09-21T04:32:16.441Z,99.90
2022-09-21T04:34:43.065Z,99.90
2022-09-21T04:37:10.811Z,99.90
2022-09-21T04:39:37.534Z,99.90
2022-09-21T04:42:08.519Z,99.90
2022-09-21T04:44:35.128Z,99.90
2022-09-21T04:47:03.148Z,99.90
2022-09-21T04:49:29.786Z,99.90
2022-09-21T04:51:56.517Z,99.90
2022-09-21T04:54:23.220Z,99.90
2022-09-21T04:56:51.089Z,99.90
2022-09-21T04:59:19.023Z,99.90
2022-09-21T05:01:45.747Z,99.90
2022-09-21T05:04:12.420Z,99.90
2022-09-21T05:06:40.496Z,99.90
2022-09-21T05:09:47.385Z,99.90
2022-09-21T05:12:14.053Z,99.90
2022-09-21T05:14:42.656Z,99.90
2022-09-21T05:17:09.550Z,99.90
2022-09-21T05:19:37.606Z,99.90
2022-09-21T05:22:04.249Z,99.90
2022-09-21T05:24:31.451Z,99.90
2022-09-21T05:27:00.025Z,99.90
2022-09-21T05:29:26.773Z,99.90
2022-09-21T05:31:56.919Z,99.90
2022-09-21T05:34:36.405Z,99.90
2022-09-21T05:37:28.362Z,99.90
2022-09-21T05:39:56.114Z,99.90
2022-09-21T05:42:22.844Z,99.90
2022-09-21T05:44:50.665Z,99.90
2022-09-21T05:47:17.243Z,99.90
2022-09-21T05:50:05.978Z,99.90
2022-09-21T05:52:36.003Z,99.90
2022-09-21T05:55:07.438Z,99.90
2022-09-21T05:57:53.016Z,99.90
2022-09-21T06:00:20.794Z,99.90
2022-09-21T06:03:06.435Z,99.90
2022-09-21T06:05:33.090Z,99.90
2022-09-21T06:07:59.721Z,99.90
2022-09-21T06:10:27.218Z,99.90
2022-09-21T06:12:53.872Z,99.90
2022-09-21T06:15:21.696Z,99.90
2022-09-21T06:17:50.751Z,99.90
2022-09-21T06:20:17.502Z,99.90
2022-09-21T06:22:44.165Z,99.90
2022-09-21T06:25:11.978Z,99.90
2022-09-21T06:27:40.880Z,99.90
2022-09-21T06:30:08.952Z,99.90
2022-09-21T06:32:35.639Z,99.90
2022-09-21T06:35:02.478Z,99.90
2022-09-21T06:37:29.118Z,99.90
2022-09-21T06:39:55.717Z,99.90
2022-09-21T06:42:22.373Z,99.90
2022-09-21T06:44:49.931Z,99.90
2022-09-21T06:47:16.590Z,99.90
2022-09-21T06:49:43.386Z,99.90
2022-09-21T06:52:10.080Z,99.90
2022-09-21T06:54:37.297Z,99.90
2022-09-21T06:57:03.923Z,99.90
2022-09-21T06:59:31.916Z,99.90
2022-09-21T07:01:58.816Z,99.90
2022-09-21T07:04:25.622Z,99.90
2022-09-21T07:06:52.230Z,99.90
2022-09-21T07:12:07.964Z,99.90
2022-09-21T07:14:34.622Z,99.90
2022-09-21T07:17:01.280Z,99.90
2022-09-21T07:19:28.749Z,99.90
2022-09-21T07:21:55.905Z,99.90
2022-09-21T07:24:22.570Z,99.90
2022-09-21T07:26:50.540Z,99.90
2022-09-21T07:29:17.165Z,99.90
2022-09-21T07:31:45.028Z,99.90
2022-09-21T07:34:12.011Z,99.90
2022-09-21T07:36:38.670Z,99.90
2022-09-21T07:39:05.483Z,99.90
2022-09-21T07:41:32.250Z,99.90
2022-09-21T07:44:01.642Z,99.90
2022-09-21T07:46:28.381Z,99.90
2022-09-21T07:48:55.455Z,99.90
2022-09-21T07:51:24.329Z,99.90
2022-09-21T07:53:55.209Z,99.90
2022-09-21T07:56:25.243Z,99.90
2022-09-21T07:59:06.879Z,99.90
2022-09-21T08:01:35.174Z,99.90
2022-09-21T08:04:02.253Z,99.90
2022-09-21T08:06:35.374Z,99.90
2022-09-21T08:09:03.361Z,99.90
2022-09-21T08:11:30.963Z,99.90
2022-09-21T08:13:59.688Z,99.90
2022-09-21T08:16:26.884Z,99.90
2022-09-21T08:18:55.240Z,99.90
2022-09-21T08:21:26.527Z,99.90
2022-09-21T08:23:53.716Z,99.90
2022-09-21T08:26:20.757Z,99.90
2022-09-21T08:28:51.566Z,99.90
2022-09-21T08:31:19.808Z,99.90
2022-09-21T08:33:47.052Z,99.90
2022-09-21T08:38:14.985Z,99.90
2022-09-21T08:40:42.342Z,99.90
2022-09-21T08:44:29.990Z,99.90
2022-09-21T08:47:15.846Z,99.90
2022-09-21T08:49:48.634Z,99.90
2022-09-21T08:52:18.365Z,99.90
2022-09-21T08:55:00.894Z,99.90
2022-09-21T08:57:33.081Z,99.90
2022-09-21T09:00:02.300Z,99.90
2022-09-21T09:03:07.223Z,99.90
2022-09-21T09:05:52.544Z,99.90
2022-09-21T09:08:47.398Z,99.90
2022-09-21T09:11:31.817Z,99.90
2022-09-21T09:14:17.190Z,99.90
2022-09-21T09:16:43.880Z,99.90
2022-09-21T09:19:46.270Z,99.90
2022-09-21T09:22:19.905Z,99.90
2022-09-21T09:24:58.750Z,99.90
2022-09-21T09:27:32.702Z,99.90
2022-09-21T09:30:06.131Z,99.90
2022-09-21T09:33:00.063Z,99.90
2022-09-21T09:35:34.131Z,99.90
2022-09-21T09:38:05.334Z,99.90
2022-09-21T09:40:53.285Z,99.90
2022-09-21T09:43:43.740Z,99.90
2022-09-21T09:46:22.338Z,99.90
2022-09-21T09:49:13.584Z,99.90
2022-09-21T09:51:40.801Z,99.90
2022-09-21T09:54:17.558Z,99.90
2022-09-21T09:56:44.495Z,99.90
2022-09-21T09:59:39.809Z,99.90
2022-09-21T10:02:20.764Z,99.90
2022-09-21T10:05:06.294Z,99.90
2022-09-21T10:07:47.494Z,99.90
2022-09-21T10:10:32.738Z,99.90
2022-09-21T10:13:33.450Z,99.90
2022-09-21T10:16:15.382Z,99.90
2022-09-21T10:19:01.921Z,99.90
2022-09-21T10:21:37.583Z,99.90
2022-09-21T10:24:07.639Z,99.90
2022-09-21T10:27:16.698Z,99.90
2022-09-21T10:29:49.249Z,99.90
2022-09-21T10:32:18.865Z,99.90
2022-09-21T10:35:07.839Z,99.90
2022-09-21T10:37:48.852Z,99.90
2022-09-21T10:40:28.052Z,99.90
2022-09-21T10:43:00.967Z,99.90
2022-09-21T10:45:30.712Z,99.90
2022-09-21T10:48:14.461Z,99.90
2022-09-21T10:50:46.508Z,99.90
2022-09-21T10:53:25.333Z,99.90
2022-09-21T10:56:17.501Z,99.90
2022-09-21T10:59:11.521Z,99.90
2022-09-21T11:01:52.911Z,99.90
2022-09-21T11:05:02.293Z,99.90
2022-09-21T11:07:58.788Z,99.90
2022-09-21T11:10:42.967Z,99.90
2022-09-21T11:13:19.675Z,99.90
2022-09-21T11:16:05.008Z,99.90
2022-09-21T11:18:58.556Z,99.90
2022-09-21T11:21:44.494Z,99.90
2022-09-21T11:24:39.673Z,99.90
2022-09-21T11:27:18.337Z,99.90
2022-09-21T11:30:11.611Z,99.90
2022-09-21T11:33:17.287Z,99.90
2022-09-21T11:36:29.156Z,99.90
2022-09-21T11:48:29.862Z,99.90
2022-09-21T11:51:23.557Z,99.90
2022-09-21T11:54:20.815Z,99.90
2022-09-21T11:56:57.063Z,99.90
2022-09-21T11:59:42.699Z,99.90
2022-09-21T12:02:31.509Z,99.90
2022-09-21T12:05:15.245Z,99.90
2022-09-21T12:08:04.415Z,99.90
2022-09-21T12:10:54.651Z,99.90
2022-09-21T12:13:46.097Z,99.90
2022-09-21T12:16:26.820Z,99.90
2022-09-21T12:19:04.834Z,99.90
2022-09-21T12:21:42.226Z,99.90
2022-09-21T12:24:21.182Z,99.90
2022-09-21T12:26:57.585Z,99.90
2022-09-21T12:29:47.933Z,99.90
2022-09-21T12:32:17.711Z,99.70
2022-09-21T12:34:49.316Z,98.80
2022-09-21T12:37:22.152Z,99.70
2022-09-21T12:40:07.091Z,99.00
2022-09-21T12:42:46.794Z,99.20
2022-09-21T12:45:32.365Z,99.90
2022-09-21T12:48:14.360Z,99.90
2022-09-21T12:50:48.565Z,99.90
2022-09-21T12:53:21.097Z,99.90
2022-09-21T12:56:09.675Z,99.90
2022-09-21T12:59:12.633Z,99.90
2022-09-21T13:01:57.546Z,99.90
2022-09-21T13:04:50.614Z,99.90
2022-09-21T13:07:23.475Z,99.50
2022-09-21T13:09:51.251Z,99.80
2022-09-21T13:12:24.969Z,99.60
2022-09-21T13:15:01.672Z,99.20
2022-09-21T13:17:33.497Z,99.40
2022-09-21T13:20:17.989Z,98.80
2022-09-21T13:22:49.170Z,98.70
2022-09-21T13:25:24.721Z,99.40
2022-09-21T13:28:09.769Z,99.60
2022-09-21T13:30:44.308Z,98.70
2022-09-21T13:33:23.797Z,98.90
2022-09-21T13:36:02.039Z,99.10
2022-09-21T13:38:34.180Z,98.40
2022-09-21T13:41:03.879Z,97.90
2022-09-21T13:44:04.361Z,98.00
2022-09-21T13:46:36.054Z,98.80
2022-09-21T13:49:15.880Z,98.00
2022-09-21T13:52:19.209Z,98.20
2022-09-21T13:54:54.071Z,97.90
2022-09-21T13:57:32.409Z,98.10
2022-09-21T14:00:06.149Z,98.10
2022-09-21T14:02:37.021Z,95.50
2022-09-21T14:05:26.638Z,96.40
2022-09-21T14:08:14.331Z,96.90
2022-09-21T14:11:02.617Z,97.70
2022-09-21T14:13:40.875Z,97.20
2022-09-21T14:16:29.378Z,96.30
2022-09-21T14:18:56.825Z,96.40
2022-09-21T14:21:23.998Z,95.10
2022-09-21T14:24:08.072Z,95.40
2022-09-21T14:26:39.251Z,93.70
2022-09-21T14:29:19.195Z,94.50
2022-09-21T14:31:47.643Z,96.00
2022-09-21T14:34:25.715Z,95.30
2022-09-21T14:36:58.399Z,95.90
2022-09-21T14:39:35.919Z,93.10
2022-09-21T14:42:12.537Z,91.90
2022-09-21T14:44:42.592Z,91.90
2022-09-21T14:47:28.930Z,91.80
2022-09-21T14:50:20.700Z,92.20
2022-09-21T14:52:53.455Z,93.80
2022-09-21T14:55:28.348Z,95.20
2022-09-21T14:58:33.277Z,91.70
2022-09-21T15:01:20.116Z,94.00
2022-09-21T15:04:11.121Z,93.80
2022-09-21T15:07:23.301Z,93.50
2022-09-21T15:10:37.236Z,93.70
2022-09-21T15:13:20.174Z,94.30
2022-09-21T15:16:11.700Z,94.50
2022-09-21T15:18:42.058Z,94.70
2022-09-21T15:21:30.223Z,95.90
2022-09-21T15:23:59.168Z,96.80
2022-09-21T15:26:33.363Z,95.50
2022-09-21T15:29:09.592Z,95.10
2022-09-21T15:31:41.926Z,95.60
2022-09-21T15:34:11.186Z,95.00
2022-09-21T15:36:40.902Z,95.50
2022-09-21T15:39:22.257Z,94.60
2022-09-21T15:41:51.463Z,93.40
2022-09-21T15:44:22.806Z,93.70
2022-09-21T15:46:55.342Z,95.30
2022-09-21T15:49:23.845Z,96.90
2022-09-21T15:52:22.549Z,95.90
2022-09-21T15:54:58.049Z,95.70
2022-09-21T15:57:39.428Z,96.60
2022-09-21T16:00:15.792Z,95.00
2022-09-21T16:02:51.793Z,94.70
2022-09-21T16:05:22.245Z,94.30
2022-09-21T16:07:49.676Z,94.10
2022-09-21T16:10:38.651Z,96.10
2022-09-21T16:13:42.399Z,96.80
2022-09-21T16:16:10.181Z,95.70
2022-09-21T16:18:47.078Z,95.00
2022-09-21T16:21:33.871Z,97.20
2022-09-21T16:24:19.497Z,97.20
2022-09-21T16:26:58.348Z,99.90
2022-09-21T16:29:27.785Z,95.80
2022-09-21T16:32:27.168Z,97.10
2022-09-21T16:35:15.207Z,96.60
2022-09-21T16:37:43.761Z,98.50
2022-09-21T16:40:11.580Z,97.20
2022-09-21T16:42:38.430Z,98.50
2022-09-21T16:45:16.849Z,97.20
2022-09-21T16:47:43.525Z,97.00
2022-09-21T16:50:16.179Z,94.50
2022-09-21T16:52:45.456Z,94.80
2022-09-21T16:55:12.424Z,95.60
2022-09-21T16:57:42.630Z,95.60
2022-09-21T17:00:14.182Z,96.10
2022-09-21T17:02:45.244Z,97.20
2022-09-21T17:05:16.078Z,97.60
2022-09-21T17:07:55.298Z,98.30
2022-09-21T17:10:29.204Z,98.60
2022-09-21T17:12:56.202Z,99.70
2022-09-21T17:15:26.057Z,99.90
2022-09-21T17:17:54.286Z,99.90
2022-09-21T17:26:30.115Z,99.90
2022-09-21T17:37:01.038Z,99.90
2022-09-21T17:39:34.362Z,99.90
2022-09-21T17:42:05.034Z,99.90
2022-09-21T17:45:02.055Z,99.90
2022-09-21T17:47:30.899Z,99.90
2022-09-21T17:52:54.708Z,99.90
2022-09-21T17:55:21.719Z,99.90
2022-09-21T17:58:05.863Z,99.90
2022-09-21T18:00:52.707Z,99.90
2022-09-21T18:04:06.157Z,99.90
2022-09-21T18:06:36.065Z,99.90
2022-09-21T18:09:04.302Z,99.90
2022-09-21T18:11:55.925Z,99.90
2022-09-21T18:14:39.328Z,99.90
2022-09-21T18:17:39.628Z,99.90
2022-09-21T18:20:39.305Z,99.90
2022-09-21T18:23:15.229Z,99.90
2022-09-21T18:25:50.477Z,99.90
2022-09-21T18:28:23.773Z,99.90
2022-09-21T18:31:32.326Z,99.90
2022-09-21T18:34:17.438Z,99.90
2022-09-21T18:37:14.001Z,99.90
2022-09-21T18:39:57.482Z,99.90
2022-09-21T18:42:40.425Z,99.90
2022-09-21T18:45:20.174Z,99.90
2022-09-21T18:47:50.171Z,99.90
2022-09-21T18:50:29.587Z,99.90
2022-09-21T18:53:30.468Z,99.90
2022-09-21T18:55:57.929Z,99.90
2022-09-21T18:58:24.950Z,99.90
2022-09-21T19:00:52.129Z,99.90
2022-09-21T19:03:21.971Z,99.90
2022-09-21T19:06:11.725Z,99.90
2022-09-21T19:08:46.980Z,99.90
2022-09-21T19:11:31.796Z,99.90
2022-09-21T19:14:17.561Z,99.90
2022-09-21T19:17:21.167Z,99.90
2022-09-21T19:20:25.921Z,99.90
2022-09-21T19:23:12.009Z,99.90
2022-09-21T19:28:36.724Z,99.90
2022-09-21T19:31:11.067Z,99.90
2022-09-21T19:33:50.006Z,99.90
2022-09-21T19:36:19.110Z,99.90
2022-09-21T19:38:46.297Z,99.90
2022-09-21T19:41:42.194Z,99.90
2022-09-21T19:44:11.619Z,99.90
2022-09-21T19:46:57.373Z,99.90
2022-09-21T19:49:30.125Z,99.90
2022-09-21T19:51:59.013Z,99.90
2022-09-21T19:54:44.815Z,99.90
2022-09-21T19:57:38.798Z,99.90
2022-09-21T20:00:12.290Z,99.90
2022-09-21T20:03:17.648Z,99.90
2022-09-21T20:06:19.234Z,99.90
2022-09-21T20:09:18.517Z,99.90
2022-09-21T20:12:01.455Z,99.90
2022-09-21T20:14:34.327Z,99.90
2022-09-21T20:17:10.580Z,99.90
2022-09-21T20:19:56.069Z,99.90
2022-09-21T20:22:36.050Z,99.90
2022-09-21T20:25:18.813Z,99.90
2022-09-21T20:27:50.734Z,99.90
2022-09-21T20:30:21.030Z,99.90
2022-09-21T20:32:52.585Z,99.90
2022-09-21T20:35:22.235Z,99.90
2022-09-21T20:37:50.563Z,99.90
2022-09-21T20:40:18.459Z,99.90
2022-09-21T20:42:45.338Z,99.90
2022-09-21T20:45:13.509Z,99.90
2022-09-21T20:47:41.438Z,99.90
2022-09-21T20:50:13.580Z,99.90
2022-09-21T20:52:41.863Z,99.90
2022-09-21T20:55:21.634Z,99.90
2022-09-21T20:57:48.762Z,99.90
2022-09-21T21:00:16.798Z,99.90
2022-09-21T21:02:43.555Z,99.90
2022-09-21T21:05:12.498Z,99.90
2022-09-21T21:07:42.583Z,99.90
2022-09-21T21:10:14.123Z,99.90
2022-09-21T21:12:41.998Z,99.90
2022-09-21T21:15:12.715Z,99.90
2022-09-21T21:17:40.478Z,99.90
2022-09-21T21:20:08.772Z,99.90
2022-09-21T21:22:35.880Z,99.90
2022-09-21T21:25:03.608Z,99.90
2022-09-21T21:27:34.049Z,99.90
2022-09-21T21:30:01.588Z,99.90
2022-09-21T21:32:28.866Z,99.90
2022-09-21T21:34:57.105Z,99.90
2022-09-21T21:37:26.509Z,99.90
2022-09-21T21:39:54.142Z,99.90
2022-09-21T21:42:23.906Z,99.90
2022-09-21T21:44:51.694Z,99.90
2022-09-21T21:47:40.539Z,99.90
2022-09-21T21:50:08.619Z,99.90
2022-09-21T21:52:36.609Z,99.90
2022-09-21T21:55:04.621Z,99.90
2022-09-21T21:57:31.398Z,99.90
2022-09-21T21:59:59.187Z,99.90
2022-09-21T22:02:30.918Z,99.90
2022-09-21T22:04:58.046Z,99.90
2022-09-21T22:07:24.718Z,99.90
2022-09-21T22:09:52.432Z,99.90
2022-09-21T22:12:19.619Z,99.90
2022-09-21T22:14:47.717Z,99.90
2022-09-21T22:17:14.534Z,99.90
2022-09-21T22:19:43.908Z,99.90
2022-09-21T22:22:10.656Z,99.90
2022-09-21T22:24:37.385Z,99.90
2022-09-21T22:27:05.381Z,99.90
2022-09-21T22:29:37.293Z,99.90
2022-09-21T22:32:04.306Z,99.90
2022-09-21T22:34:31.193Z,99.90
2022-09-21T22:36:59.117Z,99.90
2022-09-21T22:39:25.869Z,99.90
2022-09-21T22:41:52.699Z,99.90
2022-09-21T22:44:19.948Z,99.90
2022-09-21T22:46:46.687Z,99.90
2022-09-21T22:49:13.420Z,99.90
2022-09-21T22:51:40.292Z,99.90
2022-09-21T22:54:07.244Z,99.90
2022-09-21T22:56:34.633Z,99.90
2022-09-21T22:59:02.641Z,99.90
2022-09-21T23:01:35.723Z,99.90
2022-09-21T23:04:13.781Z,99.90
2022-09-21T23:06:43.339Z,99.90
2022-09-21T23:09:15.001Z,99.90
2022-09-21T23:11:43.928Z,99.90
2022-09-21T23:14:11.999Z,99.90
2022-09-21T23:16:38.757Z,99.90
2022-09-21T23:19:07.274Z,99.90
2022-09-21T23:21:35.118Z,99.90
2022-09-21T23:24:03.306Z,99.90
2022-09-21T23:26:34.711Z,99.90
2022-09-21T23:29:04.659Z,99.90
2022-09-21T23:31:32.465Z,99.90
2022-09-21T23:34:04.844Z,99.90
2022-09-21T23:36:32.520Z,99.90
2022-09-21T23:38:59.938Z,99.90
2022-09-21T23:41:29.508Z,99.90
2022-09-21T23:43:57.051Z,99.90
2022-09-21T23:46:29.974Z,99.90
2022-09-21T23:49:00.850Z,99.90
2022-09-21T23:51:29.961Z,99.90
2022-09-21T23:53:57.380Z,99.90
2022-09-21T23:56:24.660Z,99.90
2022-09-21T23:58:52.104Z,99.90
